Главная страница
METAR-TAF:

METAR-TAF

Аэропорты :

Сыктывкар, Россия

широта: 61-43N, долгота: 050-50E, высота над уровнем моря: 119 м

Текущие метеонаблюдения

Эта сводка был подготовлена 25 минут назад, в 07:00 UTC
Ветер 8 Узел от северный
Температура 4°C
Влажность 52%
Давление 1031 hPa
Видимость 10 км и более
Отдельные облака на высоте 3000 фута

METAR: UUYY 290700Z 01004MPS 9999 SCT030 04/M05 Q1031 R01/09//61 NOSIG RMK QFE764/1019

Время: 10:25 (07:25 UTC)

Прогноз

Эта сводка был подготовлена 2 часа и 25 минут назад, в 05:00 UTC
Прогноз действительный с 29-го 06 UTC до 30-го 06 UTC
Ветер 6 Узел от северный с порывами до 16 Узел
Видимость 10 км и более
Рассеянная облачность на высоте 2000 фута
изменения
С 29-го 18 UTC до 29-го 20 UTC
Ветер 2 Узел переменных направлений
временами
С 29-го 21 UTC до 30-го 03 UTC
Видимость: 1000 м
Рассеянная облачность на высоте 300 фута
дымка

TAF: UUYY 290500Z 2906/3006 01003G08MPS 9999 BKN020 BECMG 2918/2920 VRB01MPS TEMPO 2921/3003 1000 BR BKN003

Метеонаблюдения и прогнозы для более 4000 аэропортов (сводки METAR и TAF).

Имеющиеся станции представлены на карте желтыми и красными точками.

Чтобы увидеть название станции, наведите на нее мышь.

Затем щелкните, чтобы увидеть метеонаблюдения и метеопрогнозы.

Управление картой: чтобы увеличить масштаб, щелкните зеленые кнопки с черным крестиком; чтобы уменьшить масштаб, щелкните зеленую кнопку с тире; для просмотра соседних карт щелкайте зеленые стрелки.


METAR-TAF: